createdAt,value
2023-03-16T00:00:40.599Z,3.15
2023-03-16T00:01:44.843Z,3.18
2023-03-16T00:02:49.051Z,3.20
2023-03-16T00:03:53.103Z,3.23
2023-03-16T00:04:57.304Z,3.24
2023-03-16T00:06:01.519Z,3.23
2023-03-16T00:07:05.684Z,3.24
2023-03-16T00:08:09.836Z,3.24
2023-03-16T00:09:14.106Z,3.26
2023-03-16T00:10:18.253Z,3.28
2023-03-16T00:11:22.445Z,3.30
2023-03-16T00:12:26.608Z,3.31
2023-03-16T00:13:30.810Z,3.32
2023-03-16T00:14:35.014Z,3.33
2023-03-16T00:15:39.167Z,3.34
2023-03-16T00:16:43.402Z,3.34
2023-03-16T00:17:47.469Z,3.33
2023-03-16T00:18:51.770Z,3.32
2023-03-16T00:19:55.884Z,3.30
2023-03-16T00:21:00.050Z,3.29
2023-03-16T00:22:04.239Z,3.28
2023-03-16T00:23:08.494Z,3.27
2023-03-16T00:24:12.622Z,3.24
2023-03-16T00:25:16.863Z,3.21
2023-03-16T00:26:21.035Z,3.20
2023-03-16T00:27:25.065Z,3.19
2023-03-16T00:28:29.386Z,3.16
2023-03-16T00:29:33.438Z,3.13
2023-03-16T00:30:37.601Z,3.12
2023-03-16T00:31:44.989Z,3.13
2023-03-16T00:32:48.098Z,3.14
2023-03-16T00:33:52.265Z,3.15
2023-03-16T00:34:56.421Z,3.17
2023-03-16T00:36:00.620Z,3.18
2023-03-16T00:37:04.832Z,3.19
2023-03-16T00:38:09.086Z,3.21
2023-03-16T00:39:13.178Z,3.22
2023-03-16T00:40:18.233Z,3.22
2023-03-16T00:41:22.060Z,3.23
2023-03-16T00:42:26.243Z,3.24
2023-03-16T00:43:30.284Z,3.24
2023-03-16T00:44:34.530Z,3.25
2023-03-16T00:45:38.829Z,3.26
2023-03-16T00:46:43.077Z,3.25
2023-03-16T00:47:47.165Z,3.24
2023-03-16T00:48:51.286Z,3.24
2023-03-16T00:49:55.618Z,3.24
2023-03-16T00:50:59.713Z,3.24
2023-03-16T00:52:03.872Z,3.25
2023-03-16T00:53:07.971Z,3.24
2023-03-16T00:54:12.237Z,3.22
2023-03-16T00:55:19.369Z,3.21
2023-03-16T00:56:23.480Z,3.20
2023-03-16T00:57:27.299Z,3.20
2023-03-16T00:58:31.561Z,3.21
2023-03-16T00:59:35.804Z,3.22
2023-03-16T01:00:39.884Z,3.22
2023-03-16T01:01:44.059Z,3.22
2023-03-16T01:02:48.416Z,3.22
2023-03-16T01:03:52.553Z,3.22
2023-03-16T01:04:56.755Z,3.21
2023-03-16T01:06:00.874Z,3.20
2023-03-16T01:07:04.962Z,3.19
2023-03-16T01:08:09.218Z,3.16
2023-03-16T01:09:13.345Z,3.14
2023-03-16T01:10:17.488Z,3.13
2023-03-16T01:11:21.667Z,3.09
2023-03-16T01:12:25.779Z,3.07
2023-03-16T01:13:29.976Z,3.02
2023-03-16T01:14:34.228Z,3.00
2023-03-16T01:15:38.423Z,2.99
2023-03-16T01:16:42.586Z,2.98
2023-03-16T01:17:46.725Z,2.99
2023-03-16T01:18:50.904Z,2.99
2023-03-16T01:19:55.037Z,3.00
2023-03-16T01:20:59.232Z,3.00
2023-03-16T01:22:03.405Z,2.98
2023-03-16T01:23:07.569Z,2.98
2023-03-16T01:24:11.728Z,3.00
2023-03-16T01:25:16.018Z,3.02
2023-03-16T01:26:20.142Z,3.04
2023-03-16T01:27:24.406Z,3.05
2023-03-16T01:28:28.535Z,3.06
2023-03-16T01:29:32.605Z,3.08
2023-03-16T01:30:37.008Z,3.09
2023-03-16T01:31:41.024Z,3.08
2023-03-16T01:32:45.193Z,3.07
2023-03-16T01:33:49.416Z,3.06
2023-03-16T01:34:53.409Z,3.06
2023-03-16T01:35:57.832Z,3.06
2023-03-16T01:37:01.977Z,3.06
2023-03-16T01:38:06.131Z,3.05
2023-03-16T01:39:10.272Z,3.05
2023-03-16T01:40:14.441Z,3.05
2023-03-16T01:41:18.624Z,3.03
2023-03-16T01:42:22.729Z,3.02
2023-03-16T01:43:26.906Z,3.02
2023-03-16T01:44:31.229Z,3.01
2023-03-16T01:45:35.282Z,3.01
2023-03-16T01:46:39.500Z,3.00
2023-03-16T01:47:43.626Z,3.00
2023-03-16T01:48:47.743Z,3.01
2023-03-16T01:49:51.931Z,3.02
2023-03-16T01:50:56.155Z,3.02
2023-03-16T01:52:00.337Z,3.03
2023-03-16T01:53:04.510Z,3.03
2023-03-16T01:54:08.559Z,3.04
2023-03-16T01:55:12.797Z,3.05
2023-03-16T01:56:16.862Z,3.05
2023-03-16T01:57:21.114Z,3.06
2023-03-16T01:58:25.461Z,3.06
2023-03-16T01:59:29.516Z,3.07
2023-03-16T02:00:33.782Z,3.07
2023-03-16T02:01:38.030Z,3.07
2023-03-16T02:02:42.142Z,3.06
2023-03-16T02:03:49.385Z,3.06
2023-03-16T02:04:52.607Z,3.05
2023-03-16T02:05:56.751Z,3.05
2023-03-16T02:07:00.889Z,3.05
2023-03-16T02:08:05.081Z,3.05
2023-03-16T02:09:09.238Z,3.05
2023-03-16T02:10:14.622Z,3.04
2023-03-16T02:11:18.642Z,3.04
2023-03-16T02:12:22.895Z,3.04
2023-03-16T02:13:26.962Z,3.04
2023-03-16T02:14:31.162Z,3.04
2023-03-16T02:15:35.356Z,3.04
2023-03-16T02:16:39.458Z,3.04
2023-03-16T02:17:43.528Z,3.04
2023-03-16T02:18:47.772Z,3.04
2023-03-16T02:19:52.094Z,3.03
2023-03-16T02:20:56.162Z,3.03
2023-03-16T02:22:00.271Z,3.03
2023-03-16T02:23:04.499Z,3.02
2023-03-16T02:24:08.737Z,3.01
2023-03-16T02:25:12.893Z,3.00
2023-03-16T02:26:17.052Z,2.99
2023-03-16T02:27:21.227Z,2.99
2023-03-16T02:28:25.287Z,2.98
2023-03-16T02:29:29.532Z,2.97
2023-03-16T02:30:33.792Z,2.95
2023-03-16T02:31:37.865Z,2.94
2023-03-16T02:32:42.014Z,2.94
2023-03-16T02:33:46.258Z,2.93
2023-03-16T02:34:50.427Z,2.93
2023-03-16T02:35:54.640Z,2.93
2023-03-16T02:36:58.742Z,2.93
2023-03-16T02:38:02.980Z,2.93
2023-03-16T02:39:07.227Z,2.91
2023-03-16T02:40:11.366Z,2.88
2023-03-16T02:41:15.528Z,2.85
2023-03-16T02:42:19.756Z,2.84
2023-03-16T02:43:23.904Z,2.83
2023-03-16T02:44:28.051Z,2.82
2023-03-16T02:45:32.312Z,2.82
2023-03-16T02:46:36.646Z,2.83
2023-03-16T02:47:40.735Z,2.84
2023-03-16T02:48:44.919Z,2.84
2023-03-16T02:49:49.081Z,2.85
2023-03-16T02:50:53.148Z,2.85
2023-03-16T02:51:57.436Z,2.85
2023-03-16T02:53:01.449Z,2.86
2023-03-16T02:54:05.738Z,2.86
2023-03-16T02:55:09.942Z,2.86
2023-03-16T02:56:14.034Z,2.86
2023-03-16T02:57:18.344Z,2.85
2023-03-16T02:58:22.596Z,2.86
2023-03-16T02:59:26.664Z,2.86
2023-03-16T03:00:30.837Z,2.86
2023-03-16T03:01:34.962Z,2.86
2023-03-16T03:02:39.169Z,2.86
2023-03-16T03:03:43.272Z,2.86
2023-03-16T03:04:47.474Z,2.86
2023-03-16T03:05:51.724Z,2.86
2023-03-16T03:06:55.928Z,2.86
2023-03-16T03:07:59.956Z,2.85
2023-03-16T03:09:04.120Z,2.82
2023-03-16T03:10:08.280Z,2.79
2023-03-16T03:11:12.347Z,2.75
2023-03-16T03:12:16.462Z,2.68
2023-03-16T03:13:20.654Z,2.59
2023-03-16T03:14:24.844Z,2.51
2023-03-16T03:15:29.141Z,2.46
2023-03-16T03:16:33.352Z,2.43
2023-03-16T03:17:37.360Z,2.42
2023-03-16T03:18:41.442Z,2.42
2023-03-16T03:19:45.651Z,2.43
2023-03-16T03:20:49.791Z,2.41
2023-03-16T03:21:53.926Z,2.39
2023-03-16T03:22:58.158Z,2.37
2023-03-16T03:24:02.274Z,2.34
2023-03-16T03:25:06.548Z,2.32
2023-03-16T03:26:10.566Z,2.29
2023-03-16T03:27:14.754Z,2.26
2023-03-16T03:28:18.959Z,2.24
2023-03-16T03:29:23.131Z,2.22
2023-03-16T03:30:27.714Z,2.19
2023-03-16T03:31:31.364Z,2.16
2023-03-16T03:32:35.597Z,2.14
2023-03-16T03:33:39.736Z,2.14
2023-03-16T03:34:43.805Z,2.14
2023-03-16T03:35:48.093Z,2.16
2023-03-16T03:36:52.073Z,2.17
2023-03-16T03:37:56.316Z,2.16
2023-03-16T03:39:00.412Z,2.15
2023-03-16T03:40:04.465Z,2.15
2023-03-16T03:41:08.572Z,2.18
2023-03-16T03:42:12.758Z,2.19
2023-03-16T03:43:16.955Z,2.16
2023-03-16T03:44:21.083Z,2.13
2023-03-16T03:45:25.250Z,2.12
2023-03-16T03:46:29.598Z,2.13
2023-03-16T03:47:33.605Z,2.12
2023-03-16T03:48:37.709Z,2.09
2023-03-16T03:49:42.026Z,2.07
2023-03-16T03:50:46.025Z,2.07
2023-03-16T03:51:50.125Z,2.06
2023-03-16T03:52:54.344Z,2.03
2023-03-16T03:54:01.669Z,2.00
2023-03-16T03:55:04.939Z,1.98
2023-03-16T03:56:08.973Z,1.96
2023-03-16T03:57:13.143Z,1.93
2023-03-16T03:58:17.207Z,1.91
2023-03-16T03:59:21.486Z,1.90
2023-03-16T04:00:25.890Z,1.87
2023-03-16T04:01:29.697Z,1.85
2023-03-16T04:02:34.034Z,1.86
2023-03-16T04:03:38.046Z,1.87
2023-03-16T04:04:42.150Z,1.87
2023-03-16T04:05:46.365Z,1.85
2023-03-16T04:06:50.561Z,1.84
2023-03-16T04:07:54.688Z,1.84
2023-03-16T04:08:58.931Z,1.84
2023-03-16T04:10:02.927Z,1.84
2023-03-16T04:11:07.104Z,1.85
2023-03-16T04:12:11.278Z,1.87
2023-03-16T04:13:15.326Z,1.89
2023-03-16T04:14:19.663Z,1.91
2023-03-16T04:15:23.678Z,1.92
2023-03-16T04:16:28.037Z,1.93
2023-03-16T04:17:32.061Z,1.95
2023-03-16T04:18:38.339Z,1.97
2023-03-16T04:19:40.284Z,2.00
2023-03-16T04:20:47.538Z,2.03
2023-03-16T04:21:50.821Z,2.05
2023-03-16T04:22:55.066Z,2.07
2023-03-16T04:24:13.116Z,2.08
2023-03-16T04:25:16.251Z,2.10
2023-03-16T04:26:20.231Z,2.11
2023-03-16T04:27:24.488Z,2.12
2023-03-16T04:28:28.466Z,2.12
2023-03-16T04:29:32.636Z,2.12
2023-03-16T04:30:36.774Z,2.12
2023-03-16T04:31:40.916Z,2.10
2023-03-16T04:32:45.134Z,2.09
2023-03-16T04:33:49.233Z,2.08
2023-03-16T04:34:53.394Z,2.06
2023-03-16T04:35:57.460Z,2.04
2023-03-16T04:37:01.845Z,2.02
2023-03-16T04:38:05.952Z,2.01
2023-03-16T04:39:10.364Z,2.00
2023-03-16T04:40:15.287Z,2.00
2023-03-16T04:41:19.120Z,1.98
2023-03-16T04:42:23.375Z,1.98
2023-03-16T04:43:27.441Z,1.96
2023-03-16T04:44:31.479Z,1.96
2023-03-16T04:45:35.544Z,1.96
2023-03-16T04:46:39.976Z,1.96
2023-03-16T04:47:44.038Z,1.95
2023-03-16T04:48:48.083Z,1.94
2023-03-16T04:49:52.344Z,1.93
2023-03-16T04:50:56.474Z,1.93
2023-03-16T04:52:00.721Z,1.93
2023-03-16T04:53:04.840Z,1.93
2023-03-16T04:54:09.063Z,1.93
2023-03-16T04:55:13.284Z,1.93
2023-03-16T04:56:17.424Z,1.93
2023-03-16T04:57:21.567Z,1.93
2023-03-16T04:58:25.878Z,1.92
2023-03-16T04:59:30.078Z,1.91
2023-03-16T05:00:34.173Z,1.90
2023-03-16T05:01:38.467Z,1.89
2023-03-16T05:02:42.581Z,1.87
2023-03-16T05:03:46.616Z,1.85
2023-03-16T05:04:50.798Z,1.82
2023-03-16T05:05:54.942Z,1.79
2023-03-16T05:06:59.146Z,1.74
2023-03-16T05:08:03.307Z,1.66
2023-03-16T05:09:07.369Z,1.56
2023-03-16T05:10:11.715Z,1.48
2023-03-16T05:11:16.655Z,1.41
2023-03-16T05:12:20.321Z,1.32
2023-03-16T05:13:24.525Z,1.25
2023-03-16T05:14:28.630Z,1.20
2023-03-16T05:15:32.768Z,1.15
2023-03-16T05:16:36.994Z,1.14
2023-03-16T05:17:41.223Z,1.14
2023-03-16T05:18:45.297Z,1.16
2023-03-16T05:19:49.431Z,1.18
2023-03-16T05:20:53.778Z,1.21
2023-03-16T05:21:57.742Z,1.23
2023-03-16T05:23:02.008Z,1.26
2023-03-16T05:24:06.169Z,1.28
2023-03-16T05:25:10.285Z,1.28
2023-03-16T05:26:14.535Z,1.27
2023-03-16T05:27:18.773Z,1.26
2023-03-16T05:28:22.846Z,1.24
2023-03-16T05:29:26.953Z,1.20
2023-03-16T05:30:31.093Z,1.17
2023-03-16T05:31:35.436Z,1.14
2023-03-16T05:32:39.547Z,1.12
2023-03-16T05:33:43.589Z,1.11
2023-03-16T05:34:47.670Z,1.12
2023-03-16T05:35:51.928Z,1.14
2023-03-16T05:36:56.101Z,1.17
2023-03-16T05:38:00.263Z,1.19
2023-03-16T05:39:04.379Z,1.21
2023-03-16T05:40:08.645Z,1.21
2023-03-16T05:41:12.733Z,1.19
2023-03-16T05:42:16.784Z,1.16
2023-03-16T05:43:20.957Z,1.13
2023-03-16T05:44:25.185Z,1.10
2023-03-16T05:45:29.409Z,1.10
2023-03-16T05:46:33.514Z,1.13
2023-03-16T05:47:37.533Z,1.16
2023-03-16T05:48:41.839Z,1.20
2023-03-16T05:49:46.039Z,1.26
2023-03-16T05:50:50.290Z,1.30
2023-03-16T05:51:54.434Z,1.31
2023-03-16T05:52:58.432Z,1.31
2023-03-16T05:54:02.644Z,1.31
2023-03-16T05:55:06.756Z,1.32
2023-03-16T05:56:10.950Z,1.35
2023-03-16T05:57:15.159Z,1.38
2023-03-16T05:58:19.383Z,1.42
2023-03-16T05:59:23.459Z,1.47
2023-03-16T06:00:27.948Z,1.52
2023-03-16T06:01:31.993Z,1.57
2023-03-16T06:02:35.953Z,1.60
2023-03-16T06:03:40.191Z,1.61
2023-03-16T06:04:44.173Z,1.62
2023-03-16T06:05:48.479Z,1.62
2023-03-16T06:06:52.676Z,1.63
2023-03-16T06:07:56.648Z,1.65
2023-03-16T06:09:01.025Z,1.68
2023-03-16T06:10:05.027Z,1.71
2023-03-16T06:11:09.271Z,1.75
2023-03-16T06:12:13.293Z,1.79
2023-03-16T06:13:17.521Z,1.83
2023-03-16T06:14:21.735Z,1.86
2023-03-16T06:15:25.859Z,1.89
2023-03-16T06:16:29.997Z,1.91
2023-03-16T06:17:34.100Z,1.93
2023-03-16T06:18:38.279Z,1.95
2023-03-16T06:19:42.424Z,1.98
2023-03-16T06:20:46.791Z,2.00
2023-03-16T06:21:50.919Z,2.02
2023-03-16T06:22:55.104Z,2.05
2023-03-16T06:23:59.209Z,2.09
2023-03-16T06:25:03.422Z,2.13
2023-03-16T06:26:07.608Z,2.17
2023-03-16T06:27:11.736Z,2.21
2023-03-16T06:28:15.953Z,2.25
2023-03-16T06:29:20.094Z,2.29
2023-03-16T06:30:24.216Z,2.34
2023-03-16T06:31:28.437Z,2.39
2023-03-16T06:32:32.661Z,2.44
2023-03-16T06:33:36.818Z,2.48
2023-03-16T06:34:40.918Z,2.52
2023-03-16T06:35:44.987Z,2.56
2023-03-16T06:36:49.085Z,2.58
2023-03-16T06:37:54.243Z,2.61
2023-03-16T06:38:57.980Z,2.64
2023-03-16T06:40:02.084Z,2.65
2023-03-16T06:41:20.334Z,2.68
2023-03-16T06:42:23.286Z,2.71
2023-03-16T06:43:27.326Z,2.73
2023-03-16T06:44:31.520Z,2.75
2023-03-16T06:45:35.821Z,2.77
2023-03-16T06:46:39.944Z,2.79
2023-03-16T06:47:44.141Z,2.80
2023-03-16T06:48:48.355Z,2.80
2023-03-16T06:49:52.538Z,2.81
2023-03-16T06:50:56.708Z,2.83
2023-03-16T06:52:00.849Z,2.84
2023-03-16T06:53:04.879Z,2.86
2023-03-16T06:54:09.140Z,2.86
2023-03-16T06:55:13.305Z,2.88
2023-03-16T06:56:17.387Z,2.89
2023-03-16T06:57:21.589Z,2.91
2023-03-16T06:58:25.766Z,2.92
2023-03-16T06:59:29.921Z,2.93
2023-03-16T07:00:34.263Z,2.94
2023-03-16T07:01:38.381Z,2.94
2023-03-16T07:02:42.416Z,2.95
2023-03-16T07:03:46.575Z,2.96
2023-03-16T07:04:50.763Z,2.97
2023-03-16T07:05:54.933Z,2.98
2023-03-16T07:06:59.110Z,2.99
2023-03-16T07:08:03.274Z,3.00
2023-03-16T07:09:07.434Z,3.00
2023-03-16T07:10:11.603Z,3.02
2023-03-16T07:11:15.676Z,3.03
2023-03-16T07:12:19.870Z,3.05
2023-03-16T07:13:24.166Z,3.07
2023-03-16T07:14:28.298Z,3.08
2023-03-16T07:15:32.500Z,3.09
2023-03-16T07:16:36.763Z,3.10
2023-03-16T07:17:40.856Z,3.11
2023-03-16T07:18:45.054Z,3.13
2023-03-16T07:19:49.199Z,3.14
2023-03-16T07:20:53.422Z,3.16
2023-03-16T07:21:57.573Z,3.17
2023-03-16T07:23:01.757Z,3.17
2023-03-16T07:24:05.945Z,3.18
2023-03-16T07:25:10.158Z,3.19
2023-03-16T07:26:14.289Z,3.21
2023-03-16T07:27:18.564Z,3.23
2023-03-16T07:28:22.767Z,3.25
2023-03-16T07:29:26.848Z,3.27
2023-03-16T07:30:31.104Z,3.28
2023-03-16T07:31:35.183Z,3.30
2023-03-16T07:32:39.344Z,3.31
2023-03-16T07:33:43.483Z,3.32
2023-03-16T07:34:47.686Z,3.33
2023-03-16T07:35:51.955Z,3.34
2023-03-16T07:36:56.030Z,3.35
2023-03-16T07:38:00.214Z,3.36
2023-03-16T07:39:04.382Z,3.37
2023-03-16T07:40:08.699Z,3.38
2023-03-16T07:41:12.820Z,3.39
2023-03-16T07:42:17.042Z,3.40
2023-03-16T07:43:21.283Z,3.41
2023-03-16T07:44:25.410Z,3.42
2023-03-16T07:45:43.669Z,3.44
2023-03-16T07:46:46.636Z,3.46
2023-03-16T07:47:50.785Z,3.49
2023-03-16T07:48:54.932Z,3.51
2023-03-16T07:49:59.071Z,3.53
2023-03-16T07:51:03.451Z,3.55
2023-03-16T07:52:07.558Z,3.56
2023-03-16T07:53:11.734Z,3.58
2023-03-16T07:54:15.907Z,3.60
2023-03-16T07:55:20.122Z,3.62
2023-03-16T07:56:39.120Z,3.64
2023-03-16T07:57:32.995Z,3.67
2023-03-16T07:58:37.285Z,3.71
2023-03-16T07:59:41.495Z,3.73
2023-03-16T08:00:45.640Z,3.75
2023-03-16T08:01:49.824Z,3.77
2023-03-16T08:02:59.991Z,3.79
2023-03-16T08:04:02.871Z,3.81
2023-03-16T08:05:06.758Z,3.82
2023-03-16T08:06:11.002Z,3.83
2023-03-16T08:07:15.176Z,3.84
2023-03-16T08:08:33.517Z,3.86
2023-03-16T08:09:39.700Z,3.89
2023-03-16T08:10:42.904Z,3.92
2023-03-16T08:11:46.953Z,3.94
2023-03-16T08:12:51.225Z,3.96
2023-03-16T08:13:55.408Z,3.99
2023-03-16T08:14:59.593Z,4.01
2023-03-16T08:16:03.873Z,4.04
2023-03-16T08:17:07.942Z,4.06
2023-03-16T08:18:12.147Z,4.07
2023-03-16T08:19:16.331Z,4.09
2023-03-16T08:20:20.496Z,4.11
2023-03-16T08:21:24.806Z,4.13
2023-03-16T08:22:28.947Z,4.16
2023-03-16T08:23:33.255Z,4.18
2023-03-16T08:24:37.333Z,4.21
2023-03-16T08:25:41.522Z,4.23
2023-03-16T08:26:45.826Z,4.26
2023-03-16T08:27:50.088Z,4.29
2023-03-16T08:28:54.297Z,4.32
2023-03-16T08:29:58.437Z,4.35
2023-03-16T08:31:02.703Z,4.37
2023-03-16T08:32:06.858Z,4.40
2023-03-16T08:33:11.104Z,4.42
2023-03-16T08:34:15.299Z,4.45
2023-03-16T08:35:19.459Z,4.48
2023-03-16T08:36:23.636Z,4.51
2023-03-16T08:37:27.921Z,4.55
2023-03-16T08:38:32.150Z,4.58
2023-03-16T08:39:36.358Z,4.62
2023-03-16T08:40:40.585Z,4.65
2023-03-16T08:41:44.763Z,4.67
2023-03-16T08:42:48.980Z,4.70
2023-03-16T08:43:53.159Z,4.73
2023-03-16T08:44:57.335Z,4.76
2023-03-16T08:46:01.684Z,4.78
2023-03-16T08:47:05.770Z,4.81
2023-03-16T08:48:10.014Z,4.83
2023-03-16T08:49:14.418Z,4.87
2023-03-16T08:50:18.514Z,4.90
2023-03-16T08:51:22.715Z,4.94
2023-03-16T08:52:26.859Z,4.97
2023-03-16T08:53:31.206Z,4.99
2023-03-16T08:54:35.369Z,5.02
2023-03-16T08:55:40.790Z,5.04
2023-03-16T08:56:44.577Z,5.07
2023-03-16T08:57:48.813Z,5.09
2023-03-16T08:58:53.028Z,5.11
2023-03-16T08:59:57.135Z,5.14
2023-03-16T09:01:01.368Z,5.17
2023-03-16T09:02:05.681Z,5.20
2023-03-16T09:03:09.784Z,5.24
2023-03-16T09:04:14.028Z,5.27
2023-03-16T09:05:18.160Z,5.30
2023-03-16T09:06:22.416Z,5.33
2023-03-16T09:07:26.817Z,5.37
2023-03-16T09:08:30.979Z,5.40
2023-03-16T09:09:35.234Z,5.43
2023-03-16T09:10:39.433Z,5.47
2023-03-16T09:11:43.666Z,5.52
2023-03-16T09:12:47.830Z,5.56
2023-03-16T09:13:53.149Z,5.59
2023-03-16T09:14:56.397Z,5.64
2023-03-16T09:16:00.472Z,5.67
2023-03-16T09:17:04.567Z,5.71
2023-03-16T09:18:08.873Z,5.74
2023-03-16T09:19:13.039Z,5.77
2023-03-16T09:20:26.958Z,5.81
2023-03-16T09:21:21.420Z,5.84
2023-03-16T09:22:25.697Z,5.88
2023-03-16T09:23:30.032Z,5.92
2023-03-16T09:24:34.196Z,5.95
2023-03-16T09:25:38.386Z,5.99
2023-03-16T09:26:42.576Z,6.02
2023-03-16T09:27:46.741Z,6.05
2023-03-16T09:28:50.868Z,6.09
2023-03-16T09:29:55.157Z,6.13
2023-03-16T09:30:59.344Z,6.17
2023-03-16T09:32:03.469Z,6.20
2023-03-16T09:33:07.869Z,6.25
2023-03-16T09:34:11.960Z,6.28
2023-03-16T09:35:16.184Z,6.31
2023-03-16T09:36:20.431Z,6.34
2023-03-16T09:37:25.500Z,6.38
2023-03-16T09:38:29.441Z,6.39
2023-03-16T09:39:33.668Z,6.41
2023-03-16T09:40:37.847Z,6.44
2023-03-16T09:41:42.046Z,6.47
2023-03-16T09:42:46.290Z,6.49
2023-03-16T09:43:50.482Z,6.50
2023-03-16T09:44:54.752Z,6.51
2023-03-16T09:45:58.955Z,6.53
2023-03-16T09:47:03.166Z,6.56
2023-03-16T09:48:07.367Z,6.58
2023-03-16T09:49:11.688Z,6.59
2023-03-16T09:50:15.843Z,6.61
2023-03-16T09:51:20.151Z,6.62
2023-03-16T09:52:24.211Z,6.65
2023-03-16T09:53:28.447Z,6.66
2023-03-16T09:54:32.663Z,6.70
2023-03-16T09:55:37.038Z,6.75
2023-03-16T09:56:41.134Z,6.79
2023-03-16T09:57:45.369Z,6.84
2023-03-16T09:58:49.567Z,6.88
2023-03-16T09:59:53.758Z,6.92
2023-03-16T10:00:58.061Z,6.95
2023-03-16T10:02:02.190Z,6.99
2023-03-16T10:03:06.435Z,7.02
2023-03-16T10:04:10.698Z,7.05
2023-03-16T10:05:14.829Z,7.10
2023-03-16T10:06:19.040Z,7.13
2023-03-16T10:07:23.285Z,7.17
2023-03-16T10:08:27.511Z,7.19
2023-03-16T10:09:31.684Z,7.21
2023-03-16T10:10:35.902Z,7.23
2023-03-16T10:11:40.142Z,7.26
2023-03-16T10:12:44.415Z,7.28
2023-03-16T10:13:48.661Z,7.31
2023-03-16T10:14:52.798Z,7.34
2023-03-16T10:15:57.095Z,7.37
2023-03-16T10:17:01.268Z,7.41
2023-03-16T10:18:05.489Z,7.46
2023-03-16T10:19:09.719Z,7.50
2023-03-16T10:20:13.957Z,7.52
2023-03-16T10:21:18.183Z,7.55
2023-03-16T10:22:22.462Z,7.57
2023-03-16T10:23:26.624Z,7.59
2023-03-16T10:24:30.833Z,7.62
2023-03-16T10:25:35.151Z,7.67
2023-03-16T10:26:39.309Z,7.70
2023-03-16T10:27:43.534Z,7.75
2023-03-16T10:28:47.695Z,7.79
2023-03-16T10:29:51.935Z,7.81
2023-03-16T10:30:56.160Z,7.84
2023-03-16T10:32:00.476Z,7.86
2023-03-16T10:33:04.631Z,7.87
2023-03-16T10:34:08.987Z,7.90
2023-03-16T10:35:13.191Z,7.92
2023-03-16T10:36:17.532Z,7.95
2023-03-16T10:37:21.606Z,7.97
2023-03-16T10:38:25.878Z,7.99
2023-03-16T10:39:30.280Z,8.02
2023-03-16T10:40:34.385Z,8.07
2023-03-16T10:41:38.685Z,8.10
2023-03-16T10:42:42.878Z,8.14
2023-03-16T10:43:47.270Z,8.18
2023-03-16T10:44:51.359Z,8.21
2023-03-16T10:45:55.644Z,8.19
2023-03-16T10:46:59.932Z,8.20
2023-03-16T10:48:04.192Z,8.22
2023-03-16T10:49:08.513Z,8.26
2023-03-16T10:50:12.694Z,8.29
2023-03-16T10:51:16.901Z,8.31
2023-03-16T10:52:21.116Z,8.34
2023-03-16T10:53:25.386Z,8.38
2023-03-16T10:54:29.601Z,8.43
2023-03-16T10:55:33.913Z,8.47
2023-03-16T10:56:38.165Z,8.49
2023-03-16T10:57:42.391Z,8.53
2023-03-16T10:58:46.600Z,8.56
2023-03-16T10:59:50.846Z,8.59
2023-03-16T11:00:55.122Z,8.59
2023-03-16T11:01:59.352Z,8.61
2023-03-16T11:03:03.498Z,8.62
2023-03-16T11:04:07.776Z,8.63
2023-03-16T11:05:11.938Z,8.66
2023-03-16T11:06:16.191Z,8.63
2023-03-16T11:07:20.586Z,8.66
2023-03-16T11:08:24.663Z,8.69
2023-03-16T11:09:28.888Z,8.66
2023-03-16T11:10:34.526Z,8.70
2023-03-16T11:11:37.418Z,8.74
2023-03-16T11:12:41.544Z,8.76
2023-03-16T11:13:45.816Z,8.78
2023-03-16T11:14:50.052Z,8.82
2023-03-16T11:15:54.375Z,8.86
2023-03-16T11:16:58.500Z,8.90
2023-03-16T11:18:02.814Z,8.94
2023-03-16T11:19:07.024Z,8.98
2023-03-16T11:20:11.285Z,9.00
2023-03-16T11:21:15.523Z,9.02
2023-03-16T11:22:19.802Z,9.05
2023-03-16T11:23:24.009Z,9.07
2023-03-16T11:24:28.247Z,9.09
2023-03-16T11:25:33.487Z,9.09
2023-03-16T11:26:37.425Z,9.11
2023-03-16T11:27:41.661Z,9.15
2023-03-16T11:28:45.848Z,9.19
2023-03-16T11:29:50.065Z,9.23
2023-03-16T11:30:54.330Z,9.28
2023-03-16T11:31:58.625Z,9.33
2023-03-16T11:33:02.962Z,9.38
2023-03-16T11:34:07.060Z,9.42
2023-03-16T11:35:11.279Z,9.46
2023-03-16T11:36:15.691Z,9.50
2023-03-16T11:37:19.781Z,9.54
2023-03-16T11:38:24.127Z,9.55
2023-03-16T11:39:28.329Z,9.61
2023-03-16T11:40:33.562Z,9.66
2023-03-16T11:41:37.447Z,9.71
2023-03-16T11:42:41.630Z,9.75
2023-03-16T11:43:45.959Z,9.78
2023-03-16T11:44:50.683Z,9.85
2023-03-16T11:45:54.457Z,9.92
2023-03-16T11:46:58.714Z,9.99
2023-03-16T11:48:03.061Z,10.04
2023-03-16T11:49:07.196Z,10.09
2023-03-16T11:50:11.438Z,10.15
2023-03-16T11:51:15.668Z,10.21
2023-03-16T11:52:20.098Z,10.25
2023-03-16T11:53:24.252Z,10.22
2023-03-16T11:54:28.491Z,10.15
2023-03-16T11:55:32.812Z,10.17
2023-03-16T11:56:37.029Z,10.23
2023-03-16T11:57:41.250Z,10.24
2023-03-16T11:58:45.540Z,10.15
2023-03-16T12:00:00.665Z,10.22
2023-03-16T12:00:54.076Z,10.27
2023-03-16T12:02:00.994Z,10.34
2023-03-16T12:03:02.748Z,10.41
2023-03-16T12:04:06.891Z,10.46
2023-03-16T12:05:11.102Z,10.48
2023-03-16T12:06:23.020Z,10.52
2023-03-16T12:07:19.657Z,10.57
2023-03-16T12:08:23.938Z,10.60
2023-03-16T12:09:28.142Z,10.64
2023-03-16T12:10:32.370Z,10.67
2023-03-16T12:11:36.624Z,10.70
2023-03-16T12:12:40.853Z,10.73
2023-03-16T12:13:45.116Z,10.74
2023-03-16T12:14:49.354Z,10.75
2023-03-16T12:15:53.749Z,10.77
2023-03-16T12:17:13.924Z,10.80
2023-03-16T12:18:17.183Z,10.81
2023-03-16T12:19:21.410Z,10.79
2023-03-16T12:20:25.690Z,10.86
2023-03-16T12:21:29.891Z,10.95
2023-03-16T12:22:34.146Z,11.05
2023-03-16T12:23:38.557Z,11.08
2023-03-16T12:24:42.773Z,11.14
2023-03-16T12:25:46.981Z,11.17
2023-03-16T12:26:51.281Z,11.19
2023-03-16T12:27:55.528Z,11.21
2023-03-16T12:28:59.889Z,11.17
2023-03-16T12:30:04.068Z,11.17
2023-03-16T12:31:08.311Z,11.08
2023-03-16T12:32:12.501Z,11.00
2023-03-16T12:33:16.871Z,10.91
2023-03-16T12:34:21.252Z,10.90
2023-03-16T12:35:25.525Z,10.92
2023-03-16T12:36:43.823Z,10.98
2023-03-16T12:37:46.821Z,11.07
2023-03-16T12:38:51.023Z,11.11
2023-03-16T12:39:55.385Z,11.15
2023-03-16T12:40:59.606Z,11.27
2023-03-16T12:42:03.838Z,11.39
2023-03-16T12:43:08.114Z,11.51
2023-03-16T12:44:12.611Z,11.59
2023-03-16T12:45:16.694Z,11.70
2023-03-16T12:46:21.053Z,11.78
2023-03-16T12:47:25.205Z,11.86
2023-03-16T12:48:29.448Z,11.95
2023-03-16T12:49:33.731Z,12.03
2023-03-16T12:50:38.024Z,12.08
2023-03-16T12:51:42.278Z,12.14
2023-03-16T12:52:46.545Z,12.18
2023-03-16T12:53:50.923Z,12.23
2023-03-16T12:54:55.152Z,12.18
2023-03-16T12:55:59.400Z,12.22
2023-03-16T12:57:03.652Z,12.26
2023-03-16T12:58:08.002Z,12.27
2023-03-16T12:59:12.196Z,12.26
2023-03-16T13:00:16.548Z,12.19
2023-03-16T13:01:21.063Z,12.16
2023-03-16T13:02:25.081Z,12.10
2023-03-16T13:03:35.322Z,12.06
2023-03-16T13:04:38.300Z,11.84
2023-03-16T13:05:42.462Z,11.72
2023-03-16T13:06:46.703Z,11.66
2023-03-16T13:07:51.010Z,11.64
2023-03-16T13:08:55.280Z,11.62
2023-03-16T13:09:59.526Z,11.62
2023-03-16T13:11:03.805Z,11.62
2023-03-16T13:12:08.032Z,11.64
2023-03-16T13:13:12.298Z,11.66
2023-03-16T13:14:16.584Z,11.67
2023-03-16T13:15:20.936Z,11.70
2023-03-16T13:16:25.123Z,11.74
2023-03-16T13:17:29.469Z,11.78
2023-03-16T13:18:33.724Z,11.85
2023-03-16T13:19:38.067Z,11.90
2023-03-16T13:20:42.272Z,11.93
2023-03-16T13:21:46.485Z,11.97
2023-03-16T13:22:50.696Z,12.02
2023-03-16T13:23:54.947Z,12.08
2023-03-16T13:24:59.241Z,12.13
2023-03-16T13:26:03.546Z,12.17
2023-03-16T13:27:07.751Z,12.20
2023-03-16T13:28:12.038Z,12.23
2023-03-16T13:29:16.296Z,12.22
2023-03-16T13:30:20.733Z,12.23
2023-03-16T13:31:24.959Z,12.24
2023-03-16T13:32:29.138Z,12.23
2023-03-16T13:33:33.493Z,12.19
2023-03-16T13:34:40.700Z,12.16
2023-03-16T13:35:44.103Z,12.14
2023-03-16T13:36:48.286Z,12.14
2023-03-16T13:37:52.538Z,12.12
2023-03-16T13:38:56.848Z,12.09
2023-03-16T13:40:01.105Z,12.07
2023-03-16T13:41:05.368Z,12.06
2023-03-16T13:42:09.626Z,12.03
2023-03-16T13:43:13.946Z,12.01
2023-03-16T13:44:18.266Z,11.94
2023-03-16T13:45:22.485Z,11.92
2023-03-16T13:46:26.778Z,11.87
2023-03-16T13:47:30.889Z,11.84
2023-03-16T13:48:35.221Z,11.80
2023-03-16T13:49:39.513Z,11.76
2023-03-16T13:50:43.760Z,11.71
2023-03-16T13:51:48.016Z,11.66
2023-03-16T13:52:52.312Z,11.62
2023-03-16T13:53:56.553Z,11.57
2023-03-16T13:55:00.929Z,11.54
2023-03-16T13:56:05.130Z,11.51
2023-03-16T13:57:09.388Z,11.50
2023-03-16T13:58:13.653Z,11.51
2023-03-16T13:59:17.920Z,11.52
2023-03-16T14:00:23.071Z,11.55
2023-03-16T14:01:26.965Z,11.58
2023-03-16T14:02:31.234Z,11.60
2023-03-16T14:03:35.540Z,11.63
2023-03-16T14:04:40.879Z,11.65
2023-03-16T14:05:43.995Z,11.68
2023-03-16T14:06:48.408Z,11.71
2023-03-16T14:07:52.608Z,11.74
2023-03-16T14:08:56.904Z,11.75
2023-03-16T14:10:01.157Z,11.77
2023-03-16T14:11:05.451Z,11.78